createdAt,value
2023-02-02T00:01:50.420Z,3.1
2023-02-02T00:07:13.327Z,3.3
2023-02-02T00:12:35.999Z,3.3
2023-02-02T00:17:59.093Z,3.3
2023-02-02T00:23:21.862Z,3.3
2023-02-02T00:28:44.668Z,3.3
2023-02-02T00:34:07.936Z,3.3
2023-02-02T00:39:29.623Z,3
2023-02-02T00:44:51.685Z,2.8
2023-02-02T00:50:14.619Z,2.8
2023-02-02T00:55:36.947Z,2.9
2023-02-02T01:00:59.857Z,2.8
2023-02-02T01:06:22.248Z,2.8
2023-02-02T01:11:44.012Z,2.8
2023-02-02T01:17:07.180Z,2.7
2023-02-02T01:22:29.750Z,2.1
2023-02-02T01:27:51.788Z,1.9
2023-02-02T01:32:58.808Z,1.9
2023-02-02T01:38:05.888Z,1.8
2023-02-02T01:43:27.893Z,1.6
2023-02-02T01:48:35.675Z,1.4
2023-02-02T01:53:57.955Z,1.3
2023-02-02T01:59:19.475Z,1.3
2023-02-02T02:04:26.967Z,1.1
2023-02-02T02:09:49.019Z,1
2023-02-02T02:15:10.719Z,1.1
2023-02-02T02:20:32.888Z,1
2023-02-02T02:25:55.689Z,1
2023-02-02T02:31:01.906Z,0.9
2023-02-02T02:36:24.775Z,0.9
2023-02-02T02:41:46.757Z,1
2023-02-02T02:47:09.833Z,0.9
2023-02-02T02:52:16.807Z,0.9
2023-02-02T02:57:39.297Z,1.2
2023-02-02T03:03:02.179Z,1.1
2023-02-02T03:08:24.924Z,1.3
2023-02-02T03:13:32.166Z,1.1
2023-02-02T03:18:54.325Z,0.9
2023-02-02T03:24:01.582Z,0.6
2023-02-02T03:29:09.110Z,0.4
2023-02-02T03:34:16.337Z,0.2
2023-02-02T03:39:39.058Z,0
2023-02-02T03:44:31.049Z,-0.1
2023-02-02T03:49:53.951Z,-0.4
2023-02-02T03:55:16.692Z,-0.5
2023-02-02T04:00:39.064Z,-0.4
2023-02-02T04:05:45.926Z,-0.4
2023-02-02T04:15:59.682Z,-0.4
2023-02-02T04:21:22.789Z,-0.5
2023-02-02T04:26:46.047Z,-0.6
2023-02-02T04:32:08.721Z,-0.9
2023-02-02T04:37:15.356Z,-1.1
2023-02-02T04:42:37.749Z,-1.3
2023-02-02T04:48:01.109Z,-1.1
2023-02-02T04:53:23.432Z,-0.6
2023-02-02T05:02:53.349Z,-1.1
2023-02-02T05:08:17.759Z,-1.1
2023-02-02T05:13:25.325Z,-1.3
2023-02-02T05:18:48.291Z,-1.1
2023-02-02T05:23:55.149Z,-0.8
2023-02-02T05:29:33.883Z,-0.8
2023-02-02T05:35:12.224Z,-1
2023-02-02T05:50:49.252Z,-1.1
2023-02-02T05:56:27.438Z,-1.1
2023-02-02T06:02:05.706Z,-1.1
2023-02-02T06:07:45.097Z,-1
2023-02-02T06:13:21.896Z,-0.8
2023-02-02T06:19:00.584Z,-0.7
2023-02-02T06:24:38.775Z,-0.5
2023-02-02T06:30:01.719Z,-0.3
2023-02-02T06:35:41.861Z,-0.2
2023-02-02T06:41:19.819Z,-0.2
2023-02-02T06:46:54.609Z,-0.1
2023-02-02T06:52:32.949Z,0.1
2023-02-02T06:58:14.221Z,0.2
2023-02-02T07:03:52.590Z,0.3
2023-02-02T07:09:36.075Z,0.5
2023-02-02T07:16:23.008Z,0.9
2023-02-02T07:21:45.145Z,1.5
2023-02-02T07:27:08.344Z,1.3
2023-02-02T07:32:00.847Z,1.1
2023-02-02T07:37:08.392Z,1.2
2023-02-02T07:42:31.811Z,2.3
2023-02-02T07:48:20.604Z,2.7
2023-02-02T07:53:48.192Z,2.9
2023-02-02T07:59:32.196Z,4
2023-02-02T08:04:55.875Z,5.2
2023-02-02T08:10:02.266Z,5.8
2023-02-02T08:15:25.700Z,6.4
2023-02-02T08:21:04.739Z,6.1
2023-02-02T08:26:43.206Z,5.9
2023-02-02T08:32:06.406Z,6.6
2023-02-02T08:37:45.071Z,7.1
2023-02-02T08:43:27.045Z,6.8
2023-02-02T08:50:46.703Z,6.5
2023-02-02T08:56:25.241Z,7
2023-02-02T09:02:02.953Z,7.7
2023-02-02T09:07:42.439Z,7.6
2023-02-02T09:13:23.214Z,7.9
2023-02-02T09:19:01.729Z,7.5
2023-02-02T09:24:40.123Z,7.8
2023-02-02T09:30:19.049Z,8
2023-02-02T09:35:42.966Z,8.3
2023-02-02T09:41:24.055Z,8.6
2023-02-02T09:47:01.754Z,8.8
2023-02-02T09:52:40.156Z,8.7
2023-02-02T09:58:28.615Z,8.8
2023-02-02T10:04:23.154Z,9.1
2023-02-02T10:10:11.207Z,8.9
2023-02-02T10:15:50.366Z,8.8
2023-02-02T10:21:31.841Z,9
2023-02-02T10:26:55.085Z,8.4
2023-02-02T10:32:43.225Z,9.6
2023-02-02T10:38:37.925Z,8.8
2023-02-02T10:44:16.349Z,9.2
2023-02-02T10:49:56.278Z,9.8
2023-02-02T10:55:47.047Z,9.2
2023-02-02T11:01:26.206Z,10.2
2023-02-02T11:07:18.257Z,9.6
2023-02-02T11:12:57.835Z,9.9
2023-02-02T11:18:53.352Z,9.6
2023-02-02T11:24:15.888Z,9.8
2023-02-02T11:29:54.247Z,9.6
2023-02-02T11:37:14.974Z,9.5
2023-02-02T11:42:53.109Z,10.1
2023-02-02T11:48:31.562Z,10.8
2023-02-02T11:54:17.953Z,12.1
2023-02-02T11:59:57.204Z,10.9
2023-02-02T12:05:39.318Z,10.6
2023-02-02T12:11:17.267Z,10
2023-02-02T12:16:42.539Z,9.4
2023-02-02T12:22:20.869Z,9.3
2023-02-02T20:30:54.586Z,1.8
